createdAt,value
2023-05-10T00:00:18.947Z,29.07
2023-05-10T00:02:48.456Z,26.73
2023-05-10T00:05:17.454Z,41.00
2023-05-10T00:07:47.030Z,55.90
2023-05-10T00:10:16.247Z,76.30
2023-05-10T00:12:46.806Z,82.93
2023-05-10T00:15:15.867Z,86.13
2023-05-10T00:17:45.087Z,79.03
2023-05-10T00:20:14.748Z,60.20
2023-05-10T00:22:43.795Z,69.33
2023-05-10T00:25:12.958Z,65.80
2023-05-10T00:27:41.856Z,61.37
2023-05-10T00:30:13.041Z,64.60
2023-05-10T00:32:42.029Z,70.30
2023-05-10T00:35:11.381Z,67.97
2023-05-10T00:37:40.253Z,75.70
2023-05-10T00:40:10.281Z,60.53
2023-05-10T00:42:39.358Z,49.83
2023-05-10T00:45:12.668Z,27.67
2023-05-10T00:47:42.040Z,36.53
2023-05-10T00:50:12.115Z,38.07
2023-05-10T00:52:41.489Z,15.97
2023-05-10T00:55:12.036Z,17.63
2023-05-10T00:57:41.186Z,5.27
2023-05-10T01:00:13.482Z,7.13
2023-05-10T01:02:43.993Z,5.03
2023-05-10T01:05:13.304Z,2.47
2023-05-10T01:07:42.226Z,3.33
2023-05-10T01:10:12.993Z,3.40
2023-05-10T01:12:45.174Z,3.23
2023-05-10T01:15:17.385Z,3.37
2023-05-10T01:17:49.793Z,5.80
2023-05-10T01:20:45.808Z,2.50
2023-05-10T01:23:38.376Z,4.90
2023-05-10T01:26:38.534Z,5.03
2023-05-10T01:29:26.332Z,6.83
2023-05-10T01:32:18.537Z,4.43
2023-05-10T01:34:56.046Z,6.40
2023-05-10T01:37:31.609Z,6.43
2023-05-10T01:40:05.414Z,2.53
2023-05-10T01:42:42.943Z,3.93
2023-05-10T01:45:19.132Z,3.63
2023-05-10T01:47:53.679Z,3.07
2023-05-10T01:50:29.977Z,3.93
2023-05-10T01:53:01.769Z,3.40
2023-05-10T01:55:34.618Z,3.27
2023-05-10T01:58:06.952Z,2.57
2023-05-10T02:00:36.984Z,5.57
2023-05-10T02:03:11.310Z,5.87
2023-05-10T02:05:41.398Z,6.87
2023-05-10T02:08:11.417Z,5.57
2023-05-10T02:10:41.831Z,5.87
2023-05-10T02:13:12.765Z,3.33
2023-05-10T02:15:44.006Z,3.20
2023-05-10T02:18:17.773Z,3.77
2023-05-10T02:20:48.938Z,2.57
2023-05-10T02:23:19.864Z,2.93
2023-05-10T02:25:52.440Z,2.47
2023-05-10T02:28:24.706Z,3.47
2023-05-10T02:30:54.742Z,3.73
2023-05-10T02:33:25.827Z,2.70
2023-05-10T02:35:55.803Z,2.83
2023-05-10T02:38:26.639Z,3.63
2023-05-10T02:40:56.248Z,4.13
2023-05-10T02:43:26.981Z,2.40
2023-05-10T02:45:56.069Z,3.30
2023-05-10T02:48:26.684Z,2.50
2023-05-10T02:51:00.112Z,3.07
2023-05-10T02:53:36.635Z,3.20
2023-05-10T02:56:12.258Z,5.13
2023-05-10T02:58:41.533Z,5.30
2023-05-10T03:01:10.639Z,11.00
2023-05-10T03:03:43.515Z,9.67
2023-05-10T03:06:12.806Z,4.83
2023-05-10T03:08:41.878Z,3.60
2023-05-10T03:11:32.071Z,4.47
2023-05-10T03:14:19.066Z,5.73
2023-05-10T03:16:51.693Z,4.17
2023-05-10T03:19:39.061Z,5.30
2023-05-10T03:22:15.533Z,5.27
2023-05-10T03:24:45.762Z,7.07
2023-05-10T03:27:15.918Z,5.43
2023-05-10T03:29:47.626Z,3.10
2023-05-10T03:32:17.695Z,6.83
2023-05-10T03:34:49.145Z,4.63
2023-05-10T03:37:18.409Z,7.60
2023-05-10T03:39:47.817Z,5.57
2023-05-10T03:42:19.076Z,8.30
2023-05-10T03:44:53.894Z,4.60
2023-05-10T03:47:23.035Z,5.50
2023-05-10T03:49:53.445Z,5.27
2023-05-10T03:52:22.378Z,9.80
2023-05-10T03:54:51.591Z,3.23
2023-05-10T03:57:20.874Z,3.30
2023-05-10T03:59:49.674Z,3.13
2023-05-10T04:02:19.601Z,4.27
2023-05-10T04:04:49.386Z,4.67
2023-05-10T04:07:20.294Z,6.80
2023-05-10T04:09:49.873Z,3.10
2023-05-10T04:12:18.953Z,3.80
2023-05-10T04:14:47.832Z,8.70
2023-05-10T04:17:16.901Z,4.23
2023-05-10T04:19:45.926Z,6.37
2023-05-10T04:22:14.862Z,4.80
2023-05-10T04:24:45.195Z,4.37
2023-05-10T04:27:14.311Z,2.93
2023-05-10T04:29:43.220Z,2.30
2023-05-10T04:32:12.469Z,5.07
2023-05-10T04:34:41.542Z,3.70
2023-05-10T04:37:10.423Z,5.50
2023-05-10T04:39:40.969Z,2.30
2023-05-10T04:42:31.287Z,5.27
2023-05-10T04:45:00.455Z,4.97
2023-05-10T04:47:29.506Z,4.40
2023-05-10T04:49:58.660Z,5.67
2023-05-10T04:52:27.592Z,8.97
2023-05-10T04:54:57.109Z,7.97
2023-05-10T04:57:26.021Z,8.70
2023-05-10T04:59:56.748Z,4.73
2023-05-10T05:02:26.155Z,6.60
2023-05-10T05:04:55.020Z,2.90
2023-05-10T05:07:24.310Z,7.97
2023-05-10T05:09:53.223Z,5.73
2023-05-10T05:12:22.128Z,5.57
2023-05-10T05:14:51.113Z,11.10
2023-05-10T05:17:21.459Z,8.37
2023-05-10T05:19:50.427Z,4.13
2023-05-10T05:22:20.561Z,12.10
2023-05-10T05:24:49.587Z,12.47
2023-05-10T05:27:25.368Z,6.77
2023-05-10T05:29:55.688Z,5.27
2023-05-10T05:32:26.409Z,6.60
2023-05-10T05:34:55.477Z,9.20
2023-05-10T05:37:25.628Z,10.80
2023-05-10T05:39:55.658Z,7.43
2023-05-10T05:42:43.640Z,7.13
2023-05-10T05:45:14.538Z,7.53
2023-05-10T05:47:45.327Z,4.07
2023-05-10T05:50:14.399Z,7.10
2023-05-10T05:52:43.279Z,13.30
2023-05-10T05:55:13.016Z,8.30
2023-05-10T05:57:41.936Z,4.90
2023-05-10T06:00:11.649Z,7.23
2023-05-10T06:02:45.254Z,8.80
2023-05-10T06:05:15.357Z,11.00
2023-05-10T06:07:44.567Z,2.80
2023-05-10T06:10:13.765Z,9.90
2023-05-10T06:12:42.984Z,7.27
2023-05-10T06:15:15.281Z,14.47
2023-05-10T06:17:45.913Z,3.67
2023-05-10T06:20:15.970Z,21.27
2023-05-10T06:22:45.202Z,7.03
2023-05-10T06:25:15.527Z,15.83
2023-05-10T06:27:48.030Z,6.00
2023-05-10T06:30:18.971Z,11.17
2023-05-10T06:32:49.313Z,23.93
2023-05-10T06:35:18.765Z,20.30
2023-05-10T06:37:48.778Z,48.07
2023-05-10T06:40:18.307Z,31.47
2023-05-10T06:42:47.529Z,41.97
2023-05-10T06:45:17.127Z,25.23
2023-05-10T06:47:47.076Z,30.07
2023-05-10T06:50:17.797Z,15.03
2023-05-10T06:52:46.778Z,37.57
2023-05-10T06:55:16.097Z,35.30
2023-05-10T06:57:45.146Z,18.97
2023-05-10T07:00:15.775Z,28.83
2023-05-10T07:02:45.729Z,17.70
2023-05-10T07:05:15.460Z,16.30
2023-05-10T07:07:45.870Z,27.93
2023-05-10T07:10:19.333Z,17.70
2023-05-10T07:12:48.529Z,28.47
2023-05-10T07:15:18.441Z,21.53
2023-05-10T07:17:47.973Z,36.47
2023-05-10T07:20:17.072Z,27.33
2023-05-10T07:22:47.376Z,22.73
2023-05-10T07:25:16.444Z,15.27
2023-05-10T07:27:45.666Z,21.73
2023-05-10T07:30:16.325Z,13.10
2023-05-10T07:32:45.506Z,32.17
2023-05-10T07:35:14.719Z,40.93
2023-05-10T07:37:43.815Z,20.17
2023-05-10T07:40:14.582Z,19.57
2023-05-10T07:42:43.480Z,7.03
2023-05-10T07:45:12.691Z,8.90
2023-05-10T07:47:41.724Z,10.17
2023-05-10T07:50:11.291Z,10.47
2023-05-10T07:52:40.375Z,14.40
2023-05-10T07:55:10.451Z,9.30
2023-05-10T07:57:41.242Z,10.20
2023-05-10T08:00:11.254Z,11.10
2023-05-10T08:02:43.892Z,18.37
2023-05-10T08:05:13.159Z,22.20
2023-05-10T08:07:42.119Z,28.83
2023-05-10T08:10:12.689Z,13.87
2023-05-10T08:12:43.128Z,15.83
2023-05-10T08:15:13.204Z,52.87
2023-05-10T08:17:42.301Z,45.93
2023-05-10T08:20:14.059Z,23.20
2023-05-10T08:22:43.068Z,20.43
2023-05-10T08:25:12.190Z,23.40
2023-05-10T08:27:42.583Z,20.60
2023-05-10T08:30:13.226Z,14.80
2023-05-10T08:32:42.401Z,54.63
2023-05-10T08:35:11.543Z,23.80
2023-05-10T08:37:40.434Z,6.97
2023-05-10T08:40:11.929Z,12.83
2023-05-10T08:42:47.731Z,10.17
2023-05-10T08:45:18.233Z,11.70
2023-05-10T08:47:48.199Z,13.40
2023-05-10T08:50:19.023Z,21.20
2023-05-10T08:52:50.434Z,33.33
2023-05-10T08:55:19.632Z,64.83
2023-05-10T08:57:50.134Z,42.40
2023-05-10T09:00:20.857Z,22.70
2023-05-10T09:02:52.117Z,49.73
2023-05-10T09:05:21.249Z,49.47
2023-05-10T09:07:50.258Z,32.43
2023-05-10T09:10:19.460Z,50.50
2023-05-10T09:12:50.382Z,55.10
2023-05-10T09:15:21.529Z,21.07
2023-05-10T09:17:52.300Z,28.60
2023-05-10T09:20:21.741Z,50.20
2023-05-10T09:22:50.854Z,25.57
2023-05-10T09:25:19.944Z,12.03
2023-05-10T09:27:51.166Z,8.23
2023-05-10T09:30:26.163Z,21.47
2023-05-10T09:32:55.679Z,22.27
2023-05-10T09:35:29.339Z,25.50
2023-05-10T09:38:07.539Z,34.80
2023-05-10T09:40:36.476Z,49.97
2023-05-10T09:43:09.729Z,21.13
2023-05-10T09:45:39.420Z,38.30
2023-05-10T09:48:09.230Z,29.67
2023-05-10T09:50:38.262Z,23.60
2023-05-10T09:53:07.921Z,19.70
2023-05-10T09:55:47.238Z,21.10
2023-05-10T09:58:17.968Z,19.50
2023-05-10T10:00:49.092Z,21.17
2023-05-10T10:03:20.100Z,21.87
2023-05-10T10:05:50.188Z,29.57
2023-05-10T10:08:19.899Z,40.00
2023-05-10T10:10:51.618Z,35.60
2023-05-10T10:13:22.153Z,19.60
2023-05-10T10:15:52.470Z,29.50
2023-05-10T10:18:24.986Z,15.87
2023-05-10T10:20:54.815Z,22.47
2023-05-10T10:23:24.712Z,30.63
2023-05-10T10:25:55.434Z,19.50
2023-05-10T10:28:43.891Z,24.13
2023-05-10T10:31:25.957Z,14.53
2023-05-10T10:34:03.074Z,16.97
2023-05-10T10:36:34.446Z,34.03
2023-05-10T10:39:05.307Z,12.77
2023-05-10T10:41:36.097Z,16.90
2023-05-10T10:44:28.898Z,13.73
2023-05-10T10:47:10.405Z,16.10
2023-05-10T10:49:50.813Z,11.70
2023-05-10T10:52:27.997Z,13.03
2023-05-10T10:55:19.472Z,10.37
2023-05-10T10:57:50.931Z,12.67
2023-05-10T11:00:30.334Z,10.10
2023-05-10T11:03:01.283Z,16.03
2023-05-10T11:05:48.679Z,10.20
2023-05-10T11:08:21.011Z,17.93
2023-05-10T11:11:09.178Z,18.47
2023-05-10T11:13:50.082Z,51.40
2023-05-10T11:16:24.858Z,28.07
2023-05-10T11:19:03.080Z,30.10
2023-05-10T11:21:55.304Z,13.60
2023-05-10T11:24:29.888Z,18.37
2023-05-10T11:26:59.744Z,14.30
2023-05-10T11:29:28.841Z,10.10
2023-05-10T11:32:01.762Z,15.57
2023-05-10T11:34:34.880Z,12.63
2023-05-10T11:37:04.617Z,10.83
2023-05-10T11:39:34.749Z,9.60
2023-05-10T11:42:03.743Z,10.40
2023-05-10T11:44:33.439Z,13.23
2023-05-10T11:47:04.627Z,16.87
2023-05-10T11:49:33.744Z,13.73
2023-05-10T11:52:08.024Z,12.23
2023-05-10T11:54:37.244Z,13.13
2023-05-10T11:57:06.515Z,14.57
2023-05-10T11:59:35.484Z,12.83
2023-05-10T12:02:06.132Z,16.33
2023-05-10T12:04:35.469Z,14.17
2023-05-10T12:07:04.421Z,13.47
2023-05-10T12:09:43.171Z,11.00
2023-05-10T12:12:12.578Z,11.83
2023-05-10T12:14:41.563Z,15.47
2023-05-10T12:17:15.803Z,14.50
2023-05-10T12:19:45.079Z,10.10
2023-05-10T12:22:13.995Z,10.93
2023-05-10T12:24:42.916Z,9.57
2023-05-10T12:27:13.585Z,8.70
2023-05-10T12:29:46.265Z,13.37
2023-05-10T12:32:16.632Z,8.03
2023-05-10T12:34:49.064Z,7.67
2023-05-10T12:37:18.062Z,12.67
2023-05-10T12:39:48.298Z,9.27
2023-05-10T12:42:17.239Z,8.20
2023-05-10T12:44:46.044Z,9.47
2023-05-10T12:47:16.235Z,11.10
2023-05-10T12:49:45.252Z,8.90
2023-05-10T12:52:14.173Z,8.53
2023-05-10T12:54:43.025Z,15.53
2023-05-10T12:57:13.911Z,8.63
2023-05-10T12:59:42.873Z,7.67
2023-05-10T13:02:12.039Z,12.63
2023-05-10T13:04:43.040Z,14.97
2023-05-10T13:07:12.272Z,43.10
2023-05-10T13:09:41.195Z,29.37
2023-05-10T13:12:10.384Z,43.23
2023-05-10T13:14:41.495Z,60.70
2023-05-10T13:17:10.711Z,96.10
2023-05-10T13:19:39.557Z,52.43
2023-05-10T13:22:10.083Z,37.23
2023-05-10T13:24:39.013Z,23.53
2023-05-10T13:27:07.891Z,65.93
2023-05-10T13:29:36.847Z,86.03
2023-05-10T13:32:05.993Z,86.93
2023-05-10T13:34:36.816Z,116.47
2023-05-10T13:37:05.770Z,92.70
2023-05-10T13:39:37.484Z,25.00
2023-05-10T13:42:07.874Z,14.17
2023-05-10T13:44:37.319Z,9.03
2023-05-10T13:47:06.117Z,8.40
2023-05-10T13:49:35.157Z,7.90
2023-05-10T13:52:08.071Z,8.50
2023-05-10T13:54:39.166Z,7.60
2023-05-10T13:57:08.932Z,10.00
2023-05-10T13:59:38.537Z,8.57
2023-05-10T14:02:07.530Z,8.17
2023-05-10T14:04:36.785Z,8.73
2023-05-10T14:07:05.664Z,10.77
2023-05-10T14:09:34.567Z,11.23
2023-05-10T14:12:05.133Z,11.17
2023-05-10T14:14:34.435Z,13.83
2023-05-10T14:17:03.457Z,8.20
2023-05-10T14:19:33.688Z,6.97
2023-05-10T14:22:02.547Z,9.07
2023-05-10T14:24:31.417Z,6.83
2023-05-10T14:27:00.189Z,8.63
2023-05-10T14:29:30.718Z,12.30
2023-05-10T14:31:59.734Z,13.00
2023-05-10T14:34:28.609Z,10.63
2023-05-10T14:36:57.740Z,11.67
2023-05-10T14:39:26.873Z,10.43
2023-05-10T14:41:55.683Z,12.90
2023-05-10T14:44:24.990Z,12.07
2023-05-10T14:46:55.333Z,8.00
2023-05-10T14:49:26.910Z,8.30
2023-05-10T14:51:57.035Z,7.10
2023-05-10T14:54:26.050Z,8.83
2023-05-10T14:56:54.988Z,12.70
2023-05-10T14:59:23.870Z,14.33
2023-05-10T15:01:55.302Z,12.40
2023-05-10T15:04:27.063Z,11.97
2023-05-10T15:07:00.391Z,8.63
2023-05-10T15:09:29.643Z,13.00
2023-05-10T15:11:58.937Z,8.67
2023-05-10T15:14:27.906Z,9.50
2023-05-10T15:16:59.641Z,6.50
2023-05-10T15:19:30.149Z,6.70
2023-05-10T15:21:59.251Z,6.70
2023-05-10T15:24:28.615Z,5.90
2023-05-10T15:26:57.537Z,7.20
2023-05-10T15:29:26.828Z,9.00
2023-05-10T15:31:55.762Z,11.00
2023-05-10T15:34:26.247Z,14.73
2023-05-10T15:37:09.371Z,9.47
2023-05-10T15:39:40.038Z,10.00
2023-05-10T15:42:09.248Z,8.63
2023-05-10T15:44:39.528Z,8.50
2023-05-10T15:47:08.527Z,7.67
2023-05-10T15:49:39.046Z,9.87
2023-05-10T15:52:08.095Z,8.60
2023-05-10T15:54:36.960Z,6.73
2023-05-10T15:57:06.025Z,6.13
2023-05-10T15:59:36.010Z,76.87
2023-05-10T16:02:05.269Z,19.57
2023-05-10T16:04:34.323Z,27.17
2023-05-10T16:07:05.066Z,15.87
2023-05-10T16:09:34.118Z,4.30
2023-05-10T16:12:05.467Z,6.03
2023-05-10T16:14:34.626Z,7.80
2023-05-10T16:17:05.179Z,104.10
2023-05-10T16:19:34.355Z,15.07
2023-05-10T16:22:07.911Z,9.23
2023-05-10T16:24:36.989Z,71.70
2023-05-10T16:27:06.337Z,12.07
2023-05-10T16:29:35.266Z,27.40
2023-05-10T16:32:04.233Z,16.90
2023-05-10T16:34:33.088Z,9.77
2023-05-10T16:37:03.455Z,7.80
2023-05-10T16:39:32.538Z,4.57
2023-05-10T16:42:01.322Z,9.63
2023-05-10T16:44:30.416Z,42.73
2023-05-10T16:46:59.384Z,39.43
2023-05-10T16:49:28.217Z,17.00
2023-05-10T16:51:57.059Z,27.57
2023-05-10T16:54:27.649Z,17.83
2023-05-10T16:56:56.635Z,44.90
2023-05-10T16:59:25.778Z,25.00
2023-05-10T17:01:54.832Z,15.60
2023-05-10T17:04:23.678Z,57.13
2023-05-10T17:06:52.645Z,36.00
2023-05-10T17:09:21.631Z,22.20
2023-05-10T17:11:51.888Z,37.43
2023-05-10T17:14:20.775Z,41.43
2023-05-10T17:16:52.857Z,10.80
2023-05-10T17:19:23.644Z,24.83
2023-05-10T17:21:54.613Z,38.77
2023-05-10T17:24:23.677Z,20.17
2023-05-10T17:26:54.083Z,15.33
2023-05-10T17:29:23.112Z,20.17
2023-05-10T17:31:52.039Z,9.77
2023-05-10T17:34:21.928Z,16.90
2023-05-10T17:36:50.941Z,19.90
2023-05-10T17:39:19.835Z,31.10
2023-05-10T17:41:48.780Z,30.33
2023-05-10T17:44:19.805Z,62.63
2023-05-10T17:46:49.232Z,48.77
2023-05-10T17:49:18.238Z,27.53
2023-05-10T17:51:49.106Z,32.80
2023-05-10T17:54:18.248Z,23.43
2023-05-10T17:56:47.651Z,24.57
2023-05-10T17:59:16.603Z,5.87
2023-05-10T18:01:47.306Z,7.77
2023-05-10T18:04:16.774Z,32.50
2023-05-10T18:06:45.660Z,9.30
2023-05-10T18:09:16.530Z,7.53
2023-05-10T18:11:45.560Z,21.33
2023-05-10T18:14:14.618Z,11.93
2023-05-10T18:16:48.506Z,18.17
2023-05-10T18:19:17.516Z,12.53
2023-05-10T18:21:46.419Z,28.17
2023-05-10T18:24:16.832Z,34.83
2023-05-10T18:26:49.318Z,45.87
2023-05-10T18:29:18.332Z,69.87
2023-05-10T18:31:48.677Z,53.40
2023-05-10T18:34:17.746Z,41.97
2023-05-10T18:36:46.706Z,60.00
2023-05-10T18:39:18.124Z,34.43
2023-05-10T18:41:47.203Z,22.97
2023-05-10T18:44:15.993Z,15.67
2023-05-10T18:46:45.193Z,11.20
2023-05-10T18:49:39.796Z,13.77
2023-05-10T18:52:11.897Z,10.43
2023-05-10T18:54:40.850Z,16.57
2023-05-10T18:57:11.047Z,9.77
2023-05-10T18:59:40.429Z,9.10
2023-05-10T19:02:09.971Z,7.70
2023-05-10T19:04:40.992Z,12.20
2023-05-10T19:07:10.149Z,27.20
2023-05-10T19:09:39.670Z,29.63
2023-05-10T19:12:09.569Z,12.67
2023-05-10T19:14:38.832Z,37.90
2023-05-10T19:17:08.922Z,23.03
2023-05-10T19:19:40.193Z,24.43
2023-05-10T19:22:11.282Z,20.87
2023-05-10T19:24:40.844Z,28.67
2023-05-10T19:27:10.096Z,19.70
2023-05-10T19:29:39.150Z,27.83
2023-05-10T19:32:08.180Z,11.87
2023-05-10T19:34:37.129Z,23.13
2023-05-10T19:37:07.594Z,26.70
2023-05-10T19:39:37.219Z,34.43
2023-05-10T19:42:07.223Z,24.13
2023-05-10T19:44:38.111Z,13.17
2023-05-10T19:47:09.637Z,8.20
2023-05-10T19:49:39.413Z,15.53
2023-05-10T19:52:11.986Z,8.87
2023-05-10T19:54:40.895Z,9.97
2023-05-10T19:57:11.337Z,13.97
2023-05-10T19:59:41.353Z,10.93
2023-05-10T20:02:10.360Z,13.77
2023-05-10T20:04:39.258Z,17.50
2023-05-10T20:07:09.841Z,17.90
2023-05-10T20:09:45.256Z,16.87
2023-05-10T20:12:15.243Z,14.17
2023-05-10T20:14:49.902Z,14.47
2023-05-10T20:17:37.883Z,33.83
2023-05-10T20:20:07.887Z,11.87
2023-05-10T20:22:38.298Z,14.63
2023-05-10T20:25:08.755Z,16.87
2023-05-10T20:27:38.031Z,18.60
2023-05-10T20:30:08.504Z,21.37
2023-05-10T20:32:37.840Z,46.47
2023-05-10T20:35:10.381Z,48.23
2023-05-10T20:37:41.142Z,53.60
2023-05-10T20:40:11.305Z,24.10
2023-05-10T20:42:40.246Z,48.63
2023-05-10T20:45:10.454Z,38.47
2023-05-10T20:47:39.338Z,26.97
2023-05-10T20:50:09.426Z,27.77
2023-05-10T20:52:39.813Z,30.87
2023-05-10T20:55:09.728Z,23.97
2023-05-10T20:57:38.819Z,49.37
2023-05-10T21:00:11.290Z,77.50
2023-05-10T21:02:40.202Z,54.13
2023-05-10T21:05:09.945Z,28.53
2023-05-10T21:07:40.832Z,39.30
2023-05-10T21:10:12.105Z,52.97
2023-05-10T21:12:41.220Z,53.73
2023-05-10T21:15:11.103Z,23.43
2023-05-10T21:17:40.022Z,29.40
2023-05-10T21:20:10.299Z,38.07
2023-05-10T21:22:40.756Z,48.67
2023-05-10T21:25:10.456Z,37.67
2023-05-10T21:27:39.726Z,21.17
2023-05-10T21:30:09.972Z,16.50
2023-05-10T21:32:38.918Z,34.40
2023-05-10T21:35:09.066Z,49.17
2023-05-10T21:37:40.170Z,69.67
2023-05-10T21:40:09.992Z,52.07
2023-05-10T21:42:39.843Z,24.00
2023-05-10T21:45:10.436Z,17.07
2023-05-10T21:47:39.654Z,18.90
2023-05-10T21:50:10.533Z,15.20
2023-05-10T21:52:41.271Z,22.17
2023-05-10T21:55:11.195Z,16.60
2023-05-10T21:57:41.534Z,21.00
2023-05-10T22:00:11.667Z,21.70
2023-05-10T22:02:41.467Z,17.83
2023-05-10T22:05:11.285Z,26.10
2023-05-10T22:07:47.478Z,39.57
2023-05-10T22:10:17.199Z,56.63
2023-05-10T22:12:48.522Z,92.47
2023-05-10T22:15:18.023Z,108.87
2023-05-10T22:17:49.683Z,107.63
2023-05-10T22:20:19.214Z,72.57
2023-05-10T22:22:49.796Z,66.73
2023-05-10T22:25:18.797Z,61.13
2023-05-10T22:27:47.789Z,32.93
2023-05-10T22:30:17.527Z,77.27
2023-05-10T22:32:46.804Z,80.97
2023-05-10T22:35:34.203Z,80.63
2023-05-10T22:38:04.525Z,61.13
2023-05-10T22:40:33.460Z,70.27
2023-05-10T22:43:02.474Z,104.23
2023-05-10T22:45:31.429Z,84.60
2023-05-10T22:48:01.121Z,78.70
2023-05-10T22:50:32.261Z,84.20
2023-05-10T22:53:03.640Z,73.33
2023-05-10T22:55:34.234Z,65.37
2023-05-10T22:58:03.328Z,95.27
2023-05-10T23:00:32.236Z,110.07
2023-05-10T23:03:01.432Z,95.50
2023-05-10T23:05:30.439Z,48.50
2023-05-10T23:07:59.289Z,70.40
2023-05-10T23:10:28.262Z,95.70
2023-05-10T23:12:58.664Z,107.00
2023-05-10T23:15:27.583Z,100.90
2023-05-10T23:17:56.856Z,76.53
2023-05-10T23:20:25.796Z,89.87
2023-05-10T23:22:54.746Z,82.63
2023-05-10T23:25:23.663Z,65.73
2023-05-10T23:27:52.821Z,82.43
2023-05-10T23:30:23.288Z,60.83
2023-05-10T23:32:52.223Z,111.87
2023-05-10T23:35:21.482Z,97.27
2023-05-10T23:37:50.501Z,102.20
2023-05-10T23:40:19.657Z,51.87
2023-05-10T23:42:49.236Z,104.33
2023-05-10T23:45:18.431Z,156.07
2023-05-10T23:47:48.800Z,117.00
2023-05-10T23:50:18.129Z,75.83
2023-05-10T23:52:47.236Z,92.23
2023-05-10T23:55:16.616Z,80.73
2023-05-10T23:57:45.613Z,70.43
